Tiempo atmosférico en la estación meteorológica de Anaga, Santa Cruz de Tenerife (19 m.)



Fecha
DESCASC
Temp. máxima en grados centígrados (hora)
DESCASC
Temp. mínima en grados centígrados (hora)
DESCASC
Temp. media en grados centígrados
DESCASC
Racha de viento máxima en m/sg (hora)
DESCASC
Velocidad máxima media en intervalos de 10 minutos(hora)
DESCASC
Precipitaciones diarias en mm
DESCASC
Precipitaciones de 00:00 a 06:00 en mm
DESCASC
Precipitaciones de 06:00 a 12:00 en mm
DESCASC
Precipitaciones de 12:00 a 18:00 en mm
DESCASC
Precipitaciones de 18:00 a 24:00 en mm
DESCASC
19-04-2018 23.3 (13:10) 17.2 (20:50) 20.3 15.83 (21:10) 8.61 (20:40) 2.6 0 0 0 2.6
18-04-2018 24.9 (16:20) 18.5 (05:00) 21.7 12.5 (18:40) 6.39 (19:10) 0 0 0 0 0
17-04-2018 26.1 (17:40) 16.4 (07:00) 21.3 7.78 (19:40) 3.89 (19:40) 0 0 0 0 0
16-04-2018 23 (18:30) 15.6 (07:30) 19.3 8.61 (14:40) 4.72 (14:40) 0 0 0 0 0
15-04-2018 22.4 (15:20) 17.4 (00:00) 19.9 8.89 (14:30) 4.17 (14:30) 0 0 0 0 0
14-04-2018 21 (17:20) 17 (00:00) 19 9.72 (15:20) 3.89 (16:10) 0 0 0 0 0
13-04-2018 20.3 (17:20) 17.1 (00:00) 18.7 12.5 (01:00) 4.72 (03:40) 1.6 1.6 0 0 0
12-04-2018 23.5 (14:30) 16.5 (00:00) 20 10 (06:50) 4.72 (14:40) 1.2 0.4 0 0 0.8
11-04-2018 21.3 (14:20) 16.9 (00:00) 19.1 10 (05:00) 4.17 (15:00) 1.6 0 0 0.2 1.4
10-04-2018 20.1 (14:00) 16.4 (00:00) 18.3 14.17 (00:30) 6.67 (00:10) 0 0 0 0 0
09-04-2018 20.1 (15:50) 16.1 (00:00) 18.1 16.11 (20:40) 7.5 (22:40) 0.6 0 0.2 0.4 0
08-04-2018 20.4 (15:00) 17 (00:00) 18.7 13.06 (14:50) 4.44 (15:00) 1.4 0 0.4 0 1
07-04-2018 21 (15:00) 16.5 (00:00) 18.8 10.28 (16:10) 3.61 (17:00) 0.4 0.4 0 0 0
06-04-2018 21.6 (14:30) 13.9 (00:00) 17.8 10 (19:10) 4.44 (19:20) 1.6 0 0 0 1.6
05-04-2018 21.7 (14:40) 16.9 (00:00) 19.3 11.11 (16:40) 5.28 (15:50) 0 0 0 0 0
04-04-2018 21.4 (15:50) 17.5 (00:00) 19.4 8.89 (11:40) 3.61 (16:40) 0 0 0 0 0
03-04-2018 22.2 (16:30) 16.6 (00:00) 19.4 11.39 (18:50) 6.11 (18:50) 0 0 0 0 0
02-04-2018 23.2 (16:50) 15.2 (00:00) 19.2 8.06 (08:50) 3.89 (13:00) 0.4 0 0.4 0 0
01-04-2018 20.5 (11:40) 13.5 (00:00) 17 5 (17:30) 2.5 (17:30) 0 0 0 0 0
31-03-2018 21 (16:20) 14.8 (00:00) 17.9 8.33 (14:50) 3.33 (12:50) 0 0 0 0 0
30-03-2018 19.1 (17:10) 16.2 (00:00) 17.7 8.06 (12:00) 3.33 (12:00) 0 0 0 0 0
29-03-2018 26.2 (12:30) 16.2 (00:00) 21.2 10.28 (22:10) 5 (22:10) 0 0 0 0 0
28-03-2018 23.8 (14:10) 17.5 (00:00) 20.6 5 (03:40) 2.5 (03:40) 0 0 0 0 0
27-03-2018 20.9 (15:50) 16.3 (00:00) 18.6 8.89 (01:40) 3.89 (17:40) 0 0 0 0 0
26-03-2018 20.5 (16:20) 16.9 (00:00) 18.7 11.67 (08:00) 5.28 (08:00) 1.8 1.6 0.2 0 0
25-03-2018 20.4 (16:40) 16.6 (00:00) 18.5 12.78 (22:50) 4.72 (09:50) 0 0 0 0 0
24-03-2018 22.5 (14:00) 17.3 (00:00) 19.9 10.83 (22:30) 4.17 (22:00) 0 0 0 0 0
23-03-2018 20 (13:30) 15 (00:00) 17.5 9.44 (15:20) 4.17 (17:10) 0 0 0 0 0

Gráficas

Temp. máximas Temp. mínimas Temp. medias Precipitaciones Rachas de viento máximas Velocidades máximas media en intervalos de 10 minutos

Datos horarios

Fecha y hora oficial Temperatura (ºC) Velocidad del viento (km/h) Dirección del viento Racha (km/h) Dirección de racha Precipitación (mm) Presión (hPa) Tendencia (hPa) Humedad (%)
2018-04-21 23:00:00 18 12 Norte 25 Noroeste 0 -- -- 73
2018-04-21 22:00:00 17.7 9 Norte 24 Norte 0.2 -- -- 73
2018-04-21 21:00:00 18 7 Norte 24 Nordeste 0 -- -- 72
2018-04-21 20:00:00 18 3 Noroeste 17 Norte 0.2 -- -- 74
2018-04-21 19:00:00 18 4 Noroeste 24 Norte 0.6 -- -- 75
2018-04-21 18:00:00 18.4 5 Noroeste 17 Norte 0.4 -- -- 72
2018-04-21 17:00:00 18.1 0 Calma 28 Norte 0.6 -- -- 75
2018-04-21 16:00:00 19.8 14 Norte 27 Norte 0 -- -- 62
2018-04-21 15:00:00 19.1 12 Norte 30 Nordeste 0.2 -- -- 65
2018-04-21 14:00:00 18.6 3 Norte 18 Sudoeste 0.4 -- -- 69
2018-04-21 13:00:00 19.7 9 Sur 28 Norte 0 -- -- 62
2018-04-21 12:00:00 17.9 4 Noroeste 30 Norte 0.2 -- -- 72
2018-04-21 11:00:00 19 10 Norte 41 Norte 0 -- -- 60
2018-04-21 10:00:00 18.4 13 Norte 35 Norte 0 -- -- 62
2018-04-21 09:00:00 17 8 Norte 26 Noroeste 0 -- -- 66
2018-04-21 08:00:00 15.9 11 Norte 25 Norte 0.4 -- -- 65
2018-04-21 07:00:00 16 12 Norte 25 Nordeste 0 -- -- 66
2018-04-21 06:00:00 15.4 8 Noroeste 29 Norte 0.2 -- -- 73
2018-04-21 05:00:00 16.6 8 Norte 28 Norte 0 -- -- 61
2018-04-21 04:00:00 16.4 8 Norte 24 Noroeste 0 -- -- 62
2018-04-21 03:00:00 16.7 8 Norte 29 Noroeste 0 -- -- 58
2018-04-21 02:00:00 16.4 8 Norte 28 Nordeste 0.2 -- -- 63
2018-04-21 01:00:00 16.7 4 Norte 28 Nordeste 0 -- -- 60
2018-04-21 00:00:00 17.2 8 Norte 26 Nordeste 0 -- -- 58
2018-04-20 23:00:00 17.2 11 Norte 36 Norte 0 -- -- 58
2018-04-20 22:00:00 17.3 8 Noroeste 24 Noroeste 0 -- -- 59
2018-04-20 21:00:00 17.2 10 Norte 27 Norte 0 -- -- 52
2018-04-20 20:00:00 17.8 10 Norte 30 Oeste 0 -- -- 52
2018-04-20 19:00:00 17.9 5 Este 28 Norte 0 -- -- 59
2018-04-20 18:00:00 18.2 11 Norte 36 Noroeste 0 -- -- 57
2018-04-20 17:00:00 18.5 8 Norte 35 Norte 0 -- -- 60
2018-04-20 16:00:00 19.3 14 Norte 40 Norte 0 -- -- 54
2018-04-20 15:00:00 17.9 12 Norte 39 Nordeste 0 -- -- 65
2018-04-20 14:00:00 19.7 8 Norte 34 Noroeste 0 -- -- 54
2018-04-20 13:00:00 18.8 12 Norte 33 Noroeste 0 -- -- 52
2018-04-20 12:00:00 18.6 13 Norte 40 Norte 0 -- -- 54
2018-04-20 11:00:00 18.5 15 Norte 42 Norte 0 -- -- 55
2018-04-20 10:00:00 17.3 9 Norte 33 Norte 0 -- -- 57
2018-04-20 09:00:00 17.2 13 Norte 30 Oeste 0 -- -- 66
2018-04-20 08:00:00 17.2 9 Norte 41 Noroeste 0 -- -- 62
2018-04-20 07:00:00 17 7 Noroeste 30 Norte 0 -- -- 62
2018-04-20 06:00:00 17.1 11 Norte 37 Norte 0 -- -- 63
2018-04-20 05:00:00 17.1 7 Norte 33 Norte 0 -- -- 63
2018-04-20 04:00:00 17.3 12 Norte 36 Noroeste 0 -- -- 64
2018-04-20 03:00:00 17.4 14 Norte 39 Nordeste 0 -- -- 65
2018-04-20 02:00:00 17.6 10 Nordeste 28 Sur 0 -- -- 67
2018-04-20 01:00:00 17.5 5 Norte 32 Nordeste 0 -- -- 68
2018-04-20 00:00:00 17.4 9 Norte 35 Norte 0 -- -- 71
2018-04-19 23:00:00 17.5 14 Norte 51 Norte 0 -- -- 72
2018-04-19 22:00:00 17.4 24 Norte 57 Norte 0 -- -- 72
2018-04-19 21:00:00 17.3 26 Norte 56 Nordeste 0.4 -- -- 73
2018-04-19 20:00:00 17.3 23 Norte 55 Norte 2.2 -- -- 78
2018-04-19 19:00:00 19.3 17 Norte 56 Norte 0 -- -- 78
2018-04-19 18:00:00 21.4 23 Norte 47 Norte 0 -- -- 65
2018-04-19 17:00:00 22.4 19 Norte 44 Nordeste 0 -- -- 58
2018-04-19 16:00:00 22.8 21 Norte 48 Nordeste 0 -- -- 58
2018-04-19 15:00:00 23 19 Norte 40 Nordeste 0 -- -- 58
2018-04-19 14:00:00 22.6 16 Norte 40 Norte 0 -- -- 59
2018-04-19 13:00:00 22.9 12 Norte 38 Norte 0 -- -- 55
2018-04-19 12:00:00 22.8 11 Norte 29 Noroeste 0 -- -- 58
2018-04-19 11:00:00 23.2 7 Norte 20 Norte 0 -- -- 47
2018-04-19 10:00:00 21.3 9 Nordeste 27 Nordeste 0 -- -- 53
2018-04-19 09:00:00 19.7 12 Norte 28 Este 0 -- -- 59
2018-04-19 08:00:00 18.7 10 Norte 31 Nordeste 0 -- -- 66
2018-04-19 07:00:00 18.6 12 Norte 37 Norte 0 -- -- 71
2018-04-19 06:00:00 18.7 13 Norte 42 Nordeste 0 -- -- 72
2018-04-19 05:00:00 18.6 18 Norte 42 Norte 0 -- -- 71
2018-04-19 04:00:00 18.8 16 Norte 39 Nordeste 0 -- -- 71
2018-04-19 03:00:00 18.8 19 Norte 51 Norte 0 -- -- 71
2018-04-19 02:00:00 18.9 18 Norte 44 Norte 0 -- -- 71
2018-04-19 01:00:00 19 17 Norte 40 Nordeste 0 -- -- 69
2018-04-19 00:00:00 19.1 14 Norte 35 Noroeste 0 -- -- 68
2018-04-18 23:00:00 19.5 11 Norte 28 Nordeste 0 -- -- 65
2018-04-18 22:00:00 19.4 12 Norte 36 Noroeste 0 -- -- 68
2018-04-18 21:00:00 19.7 18 Norte 35 Norte 0 -- -- 69
2018-04-18 20:00:00 20.7 12 Norte 41 Norte 0 -- -- 64
2018-04-18 19:00:00 21.7 20 Norte 45 Norte 0 -- -- 60
2018-04-18 18:00:00 23.8 15 Norte 33 Nordeste 0 -- -- 55
2018-04-18 17:00:00 24.4 14 Nordeste 28 Nordeste 0 -- -- 51
2018-04-18 16:00:00 24.7 14 Nordeste 27 Nordeste 0 -- -- 51
2018-04-18 15:00:00 24.3 14 Nordeste 32 Nordeste 0 -- -- 54
2018-04-18 14:00:00 24.3 15 Nordeste 32 Norte 0 -- -- 54
2018-04-18 13:00:00 24.8 12 Nordeste 30 Nordeste 0 -- -- 50
2018-04-18 12:00:00 23.4 13 Norte 32 Norte 0 -- -- 54
2018-04-18 11:00:00 22 17 Nordeste 28 Norte 0 -- -- 61
2018-04-18 10:00:00 21.1 13 Nordeste 31 Norte 0 -- -- 62
2018-04-18 09:00:00 19.3 12 Nordeste 26 Norte 0 -- -- 69
2018-04-18 08:00:00 18.9 11 Nordeste 21 Nordeste 0 -- -- 68
2018-04-18 07:00:00 18.7 9 Norte 24 Nordeste 0 -- -- 68
2018-04-18 06:00:00 18.5 9 Norte 25 Nordeste 0 -- -- 69
2018-04-18 05:00:00 18.5 10 Nordeste 24 Norte 0 -- -- 70
2018-04-18 04:00:00 18.8 10 Nordeste 30 Norte 0 -- -- 68
2018-04-18 03:00:00 18.9 14 Norte 30 Norte 0 -- -- 69
2018-04-18 02:00:00 19.5 11 Nordeste 30 Nordeste 0 -- -- 61
2018-04-18 01:00:00 19.5 12 Nordeste 29 Norte 0 -- -- 62
2018-04-18 00:00:00 19.1 5 Norte 17 Nordeste 0 -- -- 61
2018-04-17 23:00:00 19.4 2 Sudoeste 14 Nordeste 0 -- -- 66
2018-04-17 22:00:00 19.7 6 Nordeste 16 Nordeste 0 -- -- 65
2018-04-17 21:00:00 20.2 8 Nordeste 24 Norte 0 -- -- 63
2018-04-17 20:00:00 20.6 13 Nordeste 28 Norte 0 -- -- 64
2018-04-17 19:00:00 22.7 11 Nordeste 26 Nordeste 0 -- -- 58
2018-04-17 18:00:00 25.7 6 Sur 17 Este 0 -- -- 50
2018-04-17 17:00:00 25.8 7 Sur 17 Norte 0 -- -- 50
2018-04-17 16:00:00 25.8 9 Sur 15 Sur 0 -- -- 48
2018-04-17 15:00:00 25.3 7 Sur 16 Sudeste 0 -- -- 47
2018-04-17 14:00:00 25.1 9 Sur 16 Sudeste 0 -- -- 51
2018-04-17 13:00:00 23.2 8 Sur 15 Sudeste 0 -- -- 57
2018-04-17 12:00:00 22.3 6 Sudeste 18 Sudeste 0 -- -- 60
2018-04-17 11:00:00 21.1 9 Sudeste 17 Sudeste 0 -- -- 65
2018-04-17 10:00:00 20.2 5 Sur 13 Sur 0 -- -- 64
2018-04-17 09:00:00 17.9 5 Norte 10 Norte 0 -- -- 72
2018-04-17 08:00:00 16.4 0 Calma 8 Nordeste 0 -- -- 77
2018-04-17 07:00:00 16.4 0 Calma 8 Norte 0 -- -- 78
2018-04-17 06:00:00 17.1 3 Norte 15 Norte 0 -- -- 75
2018-04-17 05:00:00 17.5 5 Norte 14 Norte 0 -- -- 74
2018-04-17 04:00:00 17.7 3 Norte 15 Nordeste 0 -- -- 71
2018-04-17 03:00:00 17.9 5 Norte 19 Nordeste 0 -- -- 73
2018-04-17 02:00:00 18.1 4 Norte 21 Nordeste 0 -- -- 72
2018-04-17 01:00:00 18.3 6 Norte 18 Nordeste 0 -- -- 70
2018-04-17 00:00:00 18.5 7 Norte 19 Nordeste 0 -- -- 69
2018-04-16 23:00:00 18.6 5 Norte 17 Norte 0 -- -- 69
2018-04-16 22:00:00 18.8 5 Norte 14 Nordeste 0 -- -- 68
2018-04-16 21:00:00 19.4 4 Norte 17 Norte 0 -- -- 66
2018-04-16 20:00:00 20.9 6 Nordeste 15 Nordeste 0 -- -- 62
2018-04-16 19:00:00 22.5 4 Noroeste 22 Sudeste 0 -- -- 55
2018-04-16 18:00:00 21.9 13 Sudeste 26 Sudeste 0 -- -- 59
2018-04-16 17:00:00 21.8 12 Sudeste 30 Sudeste 0 -- -- 60
2018-04-16 16:00:00 21.9 13 Sudeste 27 Sudeste 0 -- -- 62
2018-04-16 15:00:00 21.4 15 Sudeste 31 Sudeste 0 -- -- 66
2018-04-16 14:00:00 21.2 9 Sudeste 25 Sudeste 0 -- -- 66
2018-04-16 13:00:00 20.4 12 Sudeste 28 Sudeste 0 -- -- 66
2018-04-16 12:00:00 20.7 9 Sudeste 22 Sur 0 -- -- 64
2018-04-16 11:00:00 20.3 10 Este 24 Sur 0 -- -- 67
2018-04-16 10:00:00 20.4 8 Norte 19 Nordeste 0 -- -- 64
2018-04-16 09:00:00 18 5 Norte 16 Norte 0 -- -- 72
2018-04-16 08:00:00 15.6 0 Calma 5 Norte 0 -- -- 81
2018-04-16 07:00:00 15.7 0 Calma 6 Norte 0 -- -- 80
2018-04-16 06:00:00 16.4 0 Calma 6 Nordeste 0 -- -- 79
2018-04-16 05:00:00 16.7 3 Norte 9 Norte 0 -- -- 77
2018-04-16 04:00:00 17.5 0 Calma 13 Noroeste 0 -- -- 75
2018-04-16 03:00:00 18.1 3 Norte 16 Nordeste 0 -- -- 73
2018-04-16 02:00:00 18.4 6 Norte 17 Nordeste 0 -- -- 73
2018-04-16 01:00:00 18.3 4 Norte 18 Norte 0 -- -- 74
2018-04-16 00:00:00 18.3 6 Norte 21 Norte 0 -- -- 73
2018-04-15 23:00:00 18.4 9 Norte 23 Noroeste 0 -- -- 73
2018-04-15 22:00:00 18.5 6 Norte 15 Nordeste 0 -- -- 72
2018-04-15 21:00:00 18.8 6 Nordeste 19 Nordeste 0 -- -- 71
2018-04-15 20:00:00 19.3 8 Norte 20 Norte 0 -- -- 69
2018-04-15 19:00:00 19.8 8 Norte 21 Noroeste 0 -- -- 68
2018-04-15 18:00:00 20.5 8 Norte 26 Norte 0 -- -- 66
2018-04-15 17:00:00 21.8 12 Norte 31 Norte 0 -- -- 59
2018-04-15 16:00:00 22.1 14 Norte 29 Norte 0 -- -- 58
2018-04-15 15:00:00 22.3 13 Norte 32 Norte 0 -- -- 59
2018-04-15 14:00:00 21.7 14 Norte 28 Norte 0 -- -- 61
2018-04-15 13:00:00 20.2 8 Norte 28 Norte 0 -- -- 68
2018-04-15 12:00:00 19.9 10 Norte 27 Norte 0 -- -- 68
2018-04-15 11:00:00 19.6 5 Norte 19 Norte 0 -- -- 68
2018-04-15 10:00:00 18.7 6 Norte 21 Norte 0 -- -- 67
2018-04-15 09:00:00 17.6 6 Norte 19 Noroeste 0 -- -- 74
2018-04-15 08:00:00 17.5 5 Nordeste 18 Norte 0 -- -- 70
2018-04-15 07:00:00 17.5 5 Norte 19 Norte 0 -- -- 72
2018-04-15 06:00:00 17.4 6 Nordeste 25 Norte 0 -- -- 71
2018-04-15 05:00:00 17.5 6 Norte 23 Norte 0 -- -- 72
2018-04-15 04:00:00 17.5 11 Norte 24 Norte 0 -- -- 71
2018-04-15 03:00:00 17.4 10 Norte 25 Norte 0 -- -- 71
2018-04-15 02:00:00 17.4 7 Norte 27 Noroeste 0 -- -- 71
2018-04-15 01:00:00 17.5 7 Norte 20 Norte 0 -- -- 70
2018-04-15 00:00:00 17.6 8 Norte 23 Nordeste 0 -- -- 69
2018-04-14 23:00:00 17.7 8 Norte 28 Norte 0 -- -- 69
2018-04-14 22:00:00 17.9 8 Norte 27 Nordeste 0 -- -- 69
2018-04-14 21:00:00 18 8 Norte 23 Noroeste 0 -- -- 68
2018-04-14 20:00:00 18.5 7 Norte 23 Norte 0 -- -- 67
2018-04-14 19:00:00 19.2 8 Norte 28 Norte 0 -- -- 63
2018-04-14 18:00:00 20.6 10 Norte 27 Noroeste 0 -- -- 58
2018-04-14 17:00:00 20.8 11 Norte 27 Norte 0 -- -- 60
2018-04-14 16:00:00 20.5 13 Norte 35 Noroeste 0 -- -- 60
2018-04-14 15:00:00 20.7 11 Norte 26 Norte 0 -- -- 57
2018-04-14 14:00:00 20.5 11 Norte 30 Norte 0 -- -- 55
2018-04-14 13:00:00 19.5 10 Norte 32 Norte 0 -- -- 60
2018-04-14 12:00:00 19.3 7 Norte 29 Norte 0 -- -- 62
2018-04-14 11:00:00 18.6 9 Norte 23 Noroeste 0 -- -- 63
2018-04-14 10:00:00 18.7 8 Norte 23 Noroeste 0 -- -- 62
2018-04-14 09:00:00 17.9 7 Norte 23 Norte 0 -- -- 65
2018-04-14 08:00:00 17 5 Norte 23 Norte 0 -- -- 66
2018-04-14 07:00:00 17.1 10 Norte 31 Norte 0 -- -- 66
2018-04-14 06:00:00 17.1 8 Norte 30 Noroeste 0 -- -- 67
2018-04-14 05:00:00 17.3 9 Norte 21 Norte 0 -- -- 67
2018-04-14 04:00:00 17.3 4 Norte 26 Norte 0 -- -- 65
2018-04-14 03:00:00 17.3 6 Norte 18 Norte 0 -- -- 66
2018-04-14 02:00:00 17.4 5 Norte 16 Nordeste 0 -- -- 67
2018-04-14 01:00:00 17.1 2 Nordeste 12 Oeste 0 -- -- 67
2018-04-14 00:00:00 17.3 4 Norte 27 Noroeste 0 -- -- 65
2018-04-13 23:00:00 17.4 0 Calma 27 Norte 0 -- -- 63
2018-04-13 22:00:00 17.4 6 Norte 23 Nordeste 0 -- -- 63
2018-04-13 21:00:00 17.7 7 Norte 28 Oeste 0 -- -- 62
2018-04-13 20:00:00 18 12 Norte 28 Norte 0 -- -- 63
2018-04-13 19:00:00 18.5 11 Norte 35 Noroeste 0 -- -- 60
2018-04-13 18:00:00 19.7 12 Norte 33 Norte 0 -- -- 57
2018-04-13 17:00:00 20.1 9 Norte 29 Noroeste 0 -- -- 56
2018-04-13 16:00:00 19.3 9 Norte 30 Noroeste 0 -- -- 59
2018-04-13 15:00:00 19.1 12 Norte 31 Norte 0 -- -- 63
2018-04-13 14:00:00 19.5 14 Norte 38 Norte 0 -- -- 58
2018-04-13 13:00:00 19.2 9 Norte 26 Norte 0 -- -- 62
2018-04-13 12:00:00 19.3 10 Norte 31 Norte 0 -- -- 60
2018-04-13 11:00:00 18.3 6 Norte 33 Norte 0 -- -- 62
2018-04-13 10:00:00 18.4 14 Norte 35 Noroeste 0 -- -- 66
2018-04-13 09:00:00 17.8 8 Norte 25 Norte 0 -- -- 70
2018-04-13 08:00:00 17.2 9 Norte 35 Noroeste 0 -- -- 71
2018-04-13 07:00:00 17.5 5 Norte 31 Noroeste 0 -- -- 63
2018-04-13 06:00:00 17.3 9 Norte 30 Noroeste 0 -- -- 64
2018-04-13 05:00:00 17.3 8 Norte 31 Noroeste 0 -- -- 64
2018-04-13 04:00:00 17.3 16 Norte 40 Noroeste 0 -- -- 67
2018-04-13 03:00:00 17.2 12 Norte 36 Norte 0 -- -- 68
2018-04-13 02:00:00 17.2 13 Norte 34 Norte 0 -- -- 74
2018-04-13 01:00:00 17.5 15 Norte 45 Noroeste 1.6 -- -- 81
2018-04-13 00:00:00 18.3 10 Norte 31 Noroeste 0.8 -- -- 81
2018-04-12 23:00:00 20.2 12 Noroeste 35 Noroeste 0 -- -- 66
2018-04-12 22:00:00 19.4 11 Norte 24 Noroeste 0 -- -- 69
2018-04-12 21:00:00 19.5 12 Norte 29 Norte 0 -- -- 65
2018-04-12 20:00:00 19.7 8 Norte 28 Norte 0 -- -- 64
2018-04-12 19:00:00 20.4 14 Norte 31 Norte 0 -- -- 62
2018-04-12 18:00:00 22.5 10 Norte 25 Nordeste 0 -- -- 56
2018-04-12 17:00:00 23 9 Nordeste 25 Nordeste 0 -- -- 55
2018-04-12 16:00:00 23.2 10 Nordeste 27 Norte 0 -- -- 55
2018-04-12 15:00:00 23.2 15 Norte 32 Nordeste 0 -- -- 52
2018-04-12 14:00:00 22.8 10 Norte 25 Norte 0 -- -- 52
2018-04-12 13:00:00 22.3 6 Norte 23 Nordeste 0 -- -- 53
2018-04-12 12:00:00 21.4 8 Norte 22 Noroeste 0 -- -- 55
2018-04-12 11:00:00 20.6 7 Norte 24 Norte 0 -- -- 58
2018-04-12 10:00:00 18.7 8 Norte 32 Norte 0 -- -- 67
2018-04-12 09:00:00 17.8 10 Norte 26 Norte 0 -- -- 77
2018-04-12 08:00:00 17.1 7 Norte 24 Norte 0 -- -- 75
2018-04-12 07:00:00 16.9 13 Norte 36 Norte 0 -- -- 78
2018-04-12 06:00:00 16.5 6 Norte 21 Norte 0.2 -- -- 84
2018-04-12 05:00:00 17.3 13 Norte 28 Norte 0 -- -- 81
2018-04-12 04:00:00 17.9 10 Norte 35 Norte 0 -- -- 74
2018-04-12 03:00:00 17.8 9 Norte 25 Norte 0 -- -- 75
2018-04-12 02:00:00 17.3 2 Sur 29 Noroeste 0 -- -- 79
2018-04-12 01:00:00 17 6 Norte 24 Noroeste 0.2 -- -- 81
2018-04-12 00:00:00 17.5 7 Norte 27 Norte 0 -- -- 77
2018-04-11 23:00:00 16.9 6 Norte 20 Nordeste 0.4 -- -- 83
2018-04-11 22:00:00 17.5 5 Norte 17 Norte 0 -- -- 81
2018-04-11 21:00:00 17.7 6 Norte 21 Norte 0.8 -- -- 82
2018-04-11 20:00:00 18.5 10 Norte 27 Norte 0 -- -- 73
2018-04-11 19:00:00 18.4 12 Norte 32 Norte 0.2 -- -- 76
2018-04-11 18:00:00 20.7 13 Norte 36 Nordeste 0 -- -- 68
2018-04-11 17:00:00 20.5 14 Norte 31 Norte 0 -- -- 75
2018-04-11 16:00:00 20.4 13 Norte 30 Norte 0 -- -- 72
2018-04-11 15:00:00 19.7 15 Norte 31 Nordeste 0 -- -- 76
2018-04-11 14:00:00 20.4 9 Norte 27 Norte 0 -- -- 67
2018-04-11 13:00:00 20.4 9 Norte 24 Norte 0.2 -- -- 67
2018-04-11 12:00:00 19.2 0 Calma 20 Norte 0 -- -- 77
2018-04-11 11:00:00 18.4 4 Norte 16 Noroeste 0 -- -- 78
2018-04-11 10:00:00 19 6 Norte 25 Nordeste 0 -- -- 72
2018-04-11 09:00:00 19 6 Norte 33 Norte 0 -- -- 65
2018-04-11 08:00:00 18.4 5 Noroeste 13 Norte 0 -- -- 67
2018-04-11 07:00:00 18.3 5 Noroeste 21 Norte 0 -- -- 64
2018-04-11 06:00:00 18.6 5 Norte 29 Norte 0 -- -- 61
2018-04-11 05:00:00 18.6 14 Norte 36 Norte 0 -- -- 60
2018-04-11 04:00:00 18.4 9 Noroeste 26 Noroeste 0 -- -- 59
2018-04-11 03:00:00 18.3 9 Norte 25 Oeste 0 -- -- 60
2018-04-11 02:00:00 18.2 8 Norte 26 Noroeste 0 -- -- 66
2018-04-11 01:00:00 18.1 4 Norte 33 Norte 0 -- -- 65
2018-04-11 00:00:00 18.1 10 Norte 31 Nordeste 0 -- -- 64
2018-04-10 23:00:00 18 11 Norte 37 Noroeste 0 -- -- 64
2018-04-10 22:00:00 17.9 10 Norte 25 Norte 0 -- -- 63
2018-04-10 21:00:00 17.9 6 Norte 29 Norte 0 -- -- 65
2018-04-10 20:00:00 18.2 9 Norte 30 Norte 0 -- -- 62
2018-04-10 19:00:00 18.4 12 Norte 35 Norte 0 -- -- 63
2018-04-10 18:00:00 18.9 11 Norte 39 Norte 0 -- -- 63
2018-04-10 17:00:00 20 7 Norte 35 Nordeste 0 -- -- 60
2018-04-10 16:00:00 19.2 13 Norte 27 Noroeste 0 -- -- 64
2018-04-10 15:00:00 19 11 Norte 32 Norte 0 -- -- 66
2018-04-10 14:00:00 20.1 12 Norte 31 Norte 0 -- -- 61
2018-04-10 13:00:00 19.7 12 Norte 32 Norte 0 -- -- 61
2018-04-10 12:00:00 19.4 12 Norte 31 Norte 0 -- -- 60
2018-04-10 11:00:00 18.3 8 Norte 35 Noroeste 0 -- -- 63
2018-04-10 10:00:00 17.9 9 Norte 33 Norte 0 -- -- 62
2018-04-10 09:00:00 16.9 8 Norte 42 Noroeste 0 -- -- 63
2018-04-10 08:00:00 16.5 5 Norte 41 Noroeste 0 -- -- 63
2018-04-10 07:00:00 16.6 10 Norte 32 Noroeste 0 -- -- 61
2018-04-10 06:00:00 16.5 12 Norte 39 Norte 0 -- -- 63
2018-04-10 05:00:00 16.5 14 Norte 34 Norte 0 -- -- 60
2018-04-10 04:00:00 16.7 12 Norte 40 Norte 0 -- -- 63
2018-04-10 03:00:00 16.8 13 Norte 34 Noroeste 0 -- -- 59
2018-04-10 02:00:00 16.8 14 Norte 39 Nordeste 0 -- -- 59
2018-04-10 01:00:00 16.9 17 Norte 51 Norte 0 -- -- 60
2018-04-10 00:00:00 16.9 17 Norte 55 Nordeste 0 -- -- 60
2018-04-09 23:00:00 17.1 19 Norte 55 Nordeste 0 -- -- 58
2018-04-09 22:00:00 17.2 17 Norte 44 Norte 0 -- -- 60
2018-04-09 21:00:00 17.3 17 Norte 58 Norte 0 -- -- 60
2018-04-09 20:00:00 17.4 15 Norte 43 Nordeste 0 -- -- 63
2018-04-09 19:00:00 18 15 Norte 41 Norte 0 -- -- 58
2018-04-09 18:00:00 18.3 12 Norte 40 Norte 0 -- -- 59
2018-04-09 17:00:00 18.2 15 Norte 42 Noroeste 0 -- -- 62
2018-04-09 16:00:00 19.5 19 Norte 41 Norte 0 -- -- 54
2018-04-09 15:00:00 19.6 13 Norte 43 Norte 0 -- -- 56
2018-04-09 14:00:00 18.7 11 Norte 37 Norte 0.2 -- -- 60
2018-04-09 13:00:00 16.4 13 Norte 35 Noroeste 0.2 -- -- 72
2018-04-09 12:00:00 18.5 16 Norte 33 Norte 0 -- -- 56
2018-04-09 11:00:00 17.6 13 Norte 31 Noroeste 0 -- -- 60
2018-04-09 10:00:00 16.7 12 Norte 33 Noroeste 0.2 -- -- 70
2018-04-09 09:00:00 16.9 12 Norte 39 Este 0 -- -- 63
2018-04-09 08:00:00 16.6 9 Norte 46 Norte 0 -- -- 63
2018-04-09 07:00:00 16.5 11 Norte 41 Norte 0 -- -- 64
2018-04-09 06:00:00 16.8 14 Norte 48 Norte 0 -- -- 68
2018-04-09 05:00:00 17.2 12 Norte 40 Norte 0 -- -- 73
2018-04-09 04:00:00 17.4 11 Norte 39 Noroeste 0 -- -- 76
2018-04-09 03:00:00 17.8 13 Norte 42 Noroeste 0 -- -- 71
2018-04-09 02:00:00 17.8 13 Norte 36 Norte 0 -- -- 73
2018-04-09 01:00:00 17.8 13 Norte 34 Nordeste 0 -- -- 72
2018-04-09 00:00:00 17.6 12 Norte 39 Nordeste 0 -- -- 74
2018-04-08 23:00:00 17.6 12 Norte 37 Norte 0.2 -- -- 76
2018-04-08 22:00:00 17.8 11 Norte 33 Norte 0 -- -- 77
2018-04-08 21:00:00 17.2 10 Norte 33 Nordeste 0.8 -- -- 79
2018-04-08 20:00:00 18.6 9 Norte 40 Noroeste 0 -- -- 70
2018-04-08 19:00:00 18.9 8 Norte 33 Noroeste 0 -- -- 70
2018-04-08 18:00:00 19.8 10 Norte 37 Noroeste 0 -- -- 66
2018-04-08 17:00:00 19.7 8 Norte 39 Norte 0 -- -- 70
2018-04-08 16:00:00 20.4 15 Norte 36 Noroeste 0 -- -- 64
2018-04-08 15:00:00 20.4 16 Norte 47 Norte 0 -- -- 62
2018-04-08 14:00:00 19.9 15 Norte 39 Norte 0 -- -- 62
2018-04-08 13:00:00 19.9 12 Norte 40 Norte 0 -- -- 63
2018-04-08 12:00:00 18.3 12 Norte 35 Norte 0.4 -- -- 70
2018-04-08 11:00:00 19 12 Norte 30 Noroeste 0 -- -- 66
2018-04-08 10:00:00 18.9 10 Norte 28 Oeste 0 -- -- 63
2018-04-08 09:00:00 17.7 6 Norte 33 Nordeste 0 -- -- 66
2018-04-08 08:00:00 17.3 12 Norte 24 Noroeste 0 -- -- 64
2018-04-08 07:00:00 17.2 7 Norte 24 Nordeste 0 -- -- 61
2018-04-08 06:00:00 17.2 8 Norte 28 Norte 0 -- -- 64
2018-04-08 05:00:00 17.2 8 Norte 36 Nordeste 0 -- -- 60
2018-04-08 04:00:00 17.3 7 Norte 27 Norte 0 -- -- 64
2018-04-08 03:00:00 17.4 8 Norte 20 Norte 0 -- -- 64
2018-04-08 02:00:00 17.3 6 Norte 24 Norte 0 -- -- 62
2018-04-08 01:00:00 17.5 7 Noroeste 27 Noroeste 0 -- -- 61
2018-04-08 00:00:00 17.5 9 Norte 33 Norte 0 -- -- 61
2018-04-07 23:00:00 17.7 8 Norte 32 Noroeste 0 -- -- 61
2018-04-07 22:00:00 17.7 6 Este 30 Nordeste 0 -- -- 58
2018-04-07 21:00:00 17.8 9 Norte 35 Nordeste 0 -- -- 59
2018-04-07 20:00:00 18.2 4 Norte 34 Nordeste 0 -- -- 61
2018-04-07 19:00:00 18.5 9 Norte 30 Nordeste 0 -- -- 58
2018-04-07 18:00:00 19.2 10 Norte 28 Norte 0 -- -- 55
2018-04-07 17:00:00 19.9 13 Norte 37 Norte 0 -- -- 49
2018-04-07 16:00:00 20.8 13 Norte 32 Norte 0 -- -- 49
2018-04-07 15:00:00 21 8 Norte 29 Norte 0 -- -- 49
2018-04-07 14:00:00 19.9 8 Nordeste 30 Este 0 -- -- 53
2018-04-07 13:00:00 19.2 7 Nordeste 26 Noroeste 0 -- -- 55
2018-04-07 12:00:00 19.4 8 Nordeste 23 Noroeste 0 -- -- 57
2018-04-07 11:00:00 17.9 10 Norte 28 Norte 0 -- -- 60
2018-04-07 10:00:00 17.5 9 Norte 28 Norte 0 -- -- 64
2018-04-07 09:00:00 17.2 5 Norte 28 Norte 0 -- -- 64
2018-04-07 08:00:00 17 2 Oeste 22 Norte 0 -- -- 67
2018-04-07 07:00:00 16.8 8 Norte 29 Nordeste 0 -- -- 67
2018-04-07 06:00:00 17.3 9 Norte 28 Nordeste 0 -- -- 67
2018-04-07 05:00:00 17.3 5 Nordeste 27 Norte 0 -- -- 70
2018-04-07 04:00:00 17.2 4 Norte 28 Norte 0 -- -- 68
2018-04-07 03:00:00 17.4 10 Norte 31 Norte 0 -- -- 69
2018-04-07 02:00:00 17.6 9 Norte 26 Norte 0 -- -- 71
2018-04-07 01:00:00 17.3 7 Norte 32 Norte 0.4 -- -- 74
2018-04-07 00:00:00 17.5 9 Norte 28 Norte 0.8 -- -- 76
2018-04-06 23:00:00 17.8 11 Norte 30 Norte 0 -- -- 74
2018-04-06 22:00:00 17.8 12 Norte 30 Norte 0.8 -- -- 78
2018-04-06 21:00:00 17.8 7 Norte 22 Norte 0 -- -- 74
2018-04-06 20:00:00 18.1 9 Norte 36 Norte 0 -- -- 77
2018-04-06 19:00:00 20.3 11 Norte 24 Noroeste 0 -- -- 58
2018-04-06 18:00:00 20.2 6 Norte 17 Sudoeste 0 -- -- 69
2018-04-06 17:00:00 20.7 7 Sur 21 Sur 0 -- -- 62
2018-04-06 16:00:00 21.2 11 Sur 24 Sur 0 -- -- 59
2018-04-06 15:00:00 21.2 13 Sur 21 Sur 0 -- -- 58
2018-04-06 14:00:00 21.2 10 Sur 20 Sur 0 -- -- 59
2018-04-06 13:00:00 20.9 9 Sur 20 Sur 0 -- -- 59
2018-04-06 12:00:00 20.4 8 Sudeste 19 Sudeste 0 -- -- 60
2018-04-06 11:00:00 20.2 9 Sur 17 Sur 0 -- -- 58
2018-04-06 10:00:00 18.7 5 Noroeste 17 Norte 0 -- -- 61
2018-04-06 09:00:00 15 4 Norte 9 Norte 0 -- -- 75
2018-04-06 08:00:00 13.9 4 Norte 8 Norte 0 -- -- 76
2018-04-06 07:00:00 14.5 0 Calma 6 Oeste 0 -- -- 72
2018-04-06 06:00:00 15.7 3 Noroeste 7 Noroeste 0 -- -- 69
2018-04-06 05:00:00 15.9 2 Noroeste 9 Oeste 0 -- -- 68
2018-04-06 04:00:00 15.7 2 Noroeste 8 Nordeste 0 -- -- 70
2018-04-06 03:00:00 16 0 Calma 9 Oeste 0 -- -- 68
2018-04-06 02:00:00 17.1 6 Norte 21 Norte 0 -- -- 64
2018-04-06 01:00:00 17.2 8 Norte 21 Norte 0 -- -- 64
2018-04-06 00:00:00 17.3 4 Norte 20 Norte 0 -- -- 66
2018-04-05 23:00:00 17.3 10 Norte 23 Norte 0 -- -- 66
2018-04-05 22:00:00 17.4 12 Norte 29 Nordeste 0 -- -- 65
2018-04-05 21:00:00 17.5 13 Norte 27 Nordeste 0 -- -- 64
2018-04-05 20:00:00 18 8 Norte 25 Norte 0 -- -- 61
2018-04-05 19:00:00 19 11 Norte 35 Norte 0 -- -- 58
2018-04-05 18:00:00 20.4 14 Norte 34 Norte 0 -- -- 55
2018-04-05 17:00:00 21.1 15 Norte 40 Norte 0 -- -- 51
2018-04-05 16:00:00 21.3 17 Norte 36 Norte 0 -- -- 50
2018-04-05 15:00:00 21.4 16 Norte 36 Norte 0 -- -- 50
2018-04-05 14:00:00 21.2 14 Norte 31 Norte 0 -- -- 50
2018-04-05 13:00:00 20.7 16 Norte 32 Nordeste 0 -- -- 50
2018-04-05 12:00:00 20.2 14 Norte 31 Norte 0 -- -- 53
2018-04-05 11:00:00 19.9 10 Norte 28 Norte 0 -- -- 55
2018-04-05 10:00:00 19 8 Norte 22 Norte 0 -- -- 59
2018-04-05 09:00:00 17.3 3 Norte 11 Sudoeste 0 -- -- 69
2018-04-05 08:00:00 16.9 3 Nordeste 15 Norte 0 -- -- 63
2018-04-05 07:00:00 17.5 5 Norte 19 Norte 0 -- -- 68
2018-04-05 06:00:00 17.4 8 Norte 22 Noroeste 0 -- -- 67
2018-04-05 05:00:00 17.4 6 Norte 19 Norte 0 -- -- 68
2018-04-05 04:00:00 17.1 3 Noroeste 12 Norte 0 -- -- 63
2018-04-05 03:00:00 17.6 2 Norte 14 Norte 0 -- -- 64
2018-04-05 02:00:00 17.9 4 Norte 16 Nordeste 0 -- -- 66
2018-04-05 01:00:00 17.7 5 Norte 16 Noroeste 0 -- -- 64
2018-04-05 00:00:00 17.6 4 Noroeste 13 Norte 0 -- -- 64
2018-04-04 23:00:00 17.7 5 Norte 16 Norte 0 -- -- 63
2018-04-04 22:00:00 17.9 5 Norte 14 Noroeste 0 -- -- 63
2018-04-04 21:00:00 17.9 8 Norte 21 Norte 0 -- -- 61
2018-04-04 20:00:00 18.2 8 Norte 25 Norte 0 -- -- 59
2018-04-04 19:00:00 18.8 11 Norte 26 Norte 0 -- -- 59
2018-04-04 18:00:00 20.2 12 Norte 27 Norte 0 -- -- 55
2018-04-04 17:00:00 20.7 9 Norte 29 Norte 0 -- -- 54
2018-04-04 16:00:00 21.2 6 Norte 19 Norte 0 -- -- 55
2018-04-04 15:00:00 20.4 4 Este 22 Norte 0 -- -- 58
2018-04-04 14:00:00 19.9 4 Norte 20 Sudeste 0 -- -- 62
2018-04-04 13:00:00 19.7 6 Nordeste 23 Sudeste 0 -- -- 65
2018-04-04 12:00:00 19 7 Sur 32 Sur 0 -- -- 70
2018-04-04 11:00:00 20.9 9 Norte 19 Noroeste 0 -- -- 60
2018-04-04 10:00:00 20.6 5 Norte 22 Noroeste 0 -- -- 57
2018-04-04 09:00:00 18.5 4 Norte 14 Norte 0 -- -- 67
2018-04-04 08:00:00 18.1 7 Norte 17 Noroeste 0 -- -- 70
2018-04-04 07:00:00 18 6 Norte 15 Norte 0 -- -- 74
2018-04-04 06:00:00 18.1 5 Norte 18 Norte 0 -- -- 68
2018-04-04 05:00:00 18.1 4 Norte 14 Nordeste 0 -- -- 68
2018-04-04 04:00:00 18.3 4 Norte 14 Norte 0 -- -- 65
2018-04-04 03:00:00 18.3 4 Norte 15 Norte 0 -- -- 66
2018-04-04 02:00:00 18.5 4 Norte 13 Nordeste 0 -- -- 65
2018-04-04 01:00:00 18.8 5 Norte 20 Noroeste 0 -- -- 66
2018-04-04 00:00:00 18.8 9 Norte 28 Norte 0 -- -- 65
2018-04-03 23:00:00 18.8 6 Norte 25 Noroeste 0 -- -- 68
2018-04-03 22:00:00 18.9 5 Norte 23 Norte 0 -- -- 66
2018-04-03 21:00:00 18.9 6 Norte 21 Norte 0 -- -- 67
2018-04-03 20:00:00 19.1 7 Norte 30 Norte 0 -- -- 67
2018-04-03 19:00:00 19.7 19 Norte 41 Nordeste 0 -- -- 64
2018-04-03 18:00:00 21.5 9 Norte 27 Norte 0 -- -- 58
2018-04-03 17:00:00 21.8 13 Norte 27 Noroeste 0 -- -- 57
2018-04-03 16:00:00 22.1 12 Norte 33 Norte 0 -- -- 56
2018-04-03 15:00:00 21.8 14 Norte 32 Noroeste 0 -- -- 55
2018-04-03 14:00:00 21.6 12 Norte 27 Norte 0 -- -- 56
2018-04-03 13:00:00 21.5 10 Norte 24 Norte 0 -- -- 58
2018-04-03 12:00:00 20.8 10 Norte 26 Noroeste 0 -- -- 59
2018-04-03 11:00:00 20.2 9 Norte 23 Norte 0 -- -- 61
2018-04-03 10:00:00 19.2 6 Norte 17 Nordeste 0 -- -- 66
2018-04-03 09:00:00 18 4 Norte 10 Nordeste 0 -- -- 74
2018-04-03 08:00:00 16.7 0 Calma 6 Sudoeste 0 -- -- 75
2018-04-03 07:00:00 17.3 0 Calma 14 Norte 0 -- -- 72
2018-04-03 06:00:00 17.8 4 Norte 20 Norte 0 -- -- 69
2018-04-03 05:00:00 17.9 4 Norte 10 Noroeste 0 -- -- 68
2018-04-03 04:00:00 18.1 5 Norte 14 Nordeste 0 -- -- 68
2018-04-03 03:00:00 18.3 3 Nordeste 9 Norte 0 -- -- 69
2018-04-03 02:00:00 18.4 4 Norte 10 Norte 0 -- -- 66
2018-04-03 01:00:00 18.8 3 Norte 14 Norte 0 -- -- 66
2018-04-03 00:00:00 18.8 4 Norte 22 Norte 0 -- -- 66
2018-04-02 23:00:00 19.2 6 Norte 20 Nordeste 0 -- -- 67
2018-04-02 22:00:00 19.2 4 Norte 21 Norte 0 -- -- 67
2018-04-02 21:00:00 19.3 8 Norte 18 Norte 0 -- -- 67
2018-04-02 20:00:00 19.7 8 Norte 22 Nordeste 0 -- -- 64
2018-04-02 19:00:00 20.2 9 Norte 22 Norte 0 -- -- 62
2018-04-02 18:00:00 22.1 11 Norte 26 Norte 0 -- -- 57
2018-04-02 17:00:00 23.1 9 Norte 22 Norte 0 -- -- 54
2018-04-02 16:00:00 22.4 8 Norte 27 Norte 0 -- -- 57
2018-04-02 15:00:00 20.8 6 Norte 21 Norte 0 -- -- 64
2018-04-02 14:00:00 21.9 4 Sudeste 24 Norte 0 -- -- 66
2018-04-02 13:00:00 21.8 14 Norte 26 Nordeste 0 -- -- 57
2018-04-02 12:00:00 21.1 8 Norte 20 Norte 0 -- -- 61
2018-04-02 11:00:00 21.1 6 Norte 16 Nordeste 0 -- -- 61
2018-04-02 10:00:00 19 4 Sur 15 Sur 0 -- -- 72
2018-04-02 09:00:00 17.2 4 Norte 29 Noroeste 0 -- -- 76
2018-04-02 08:00:00 15.4 2 Nordeste 8 Sudoeste 0 -- -- 87
2018-04-02 07:00:00 15.9 0 Calma 10 Noroeste 0.4 -- -- 86
2018-04-02 06:00:00 16 4 Norte 8 Norte 0 -- -- 82
2018-04-02 05:00:00 16.2 3 Norte 9 Norte 0 -- -- 80
2018-04-02 04:00:00 16.2 4 Norte 8 Nordeste 0 -- -- 82
2018-04-02 03:00:00 16.3 4 Norte 9 Noroeste 0 -- -- 77
2018-04-02 02:00:00 15.6 4 Norte 9 Norte 0 -- -- 76
2018-04-02 01:00:00 15.4 4 Norte 8 Norte 0 -- -- 76
2018-04-02 00:00:00 16.4 3 Norte 8 Noroeste 0 -- -- 72
2018-04-01 23:00:00 17 4 Norte 13 Este 0 -- -- 70
2018-04-01 22:00:00 17.6 0 Calma 4 Nordeste 0 -- -- 69
2018-04-01 21:00:00 18.3 2 Sudeste 7 Sur 0 -- -- 71
2018-04-01 20:00:00 18.8 4 Sudeste 13 Sur 0 -- -- 67
2018-04-01 19:00:00 18.7 4 Sudeste 17 Sudeste 0 -- -- 69
2018-04-01 18:00:00 19 8 Sudeste 18 Sudeste 0 -- -- 65
2018-04-01 17:00:00 19.5 7 Sudeste 16 Sur 0 -- -- 65
2018-04-01 16:00:00 19.7 6 Sur 14 Sudeste 0 -- -- 63
2018-04-01 15:00:00 19.8 6 Sudeste 13 Sur 0 -- -- 63
2018-04-01 14:00:00 19.1 5 Sur 10 Sur 0 -- -- 64
2018-04-01 13:00:00 19.6 5 Sur 17 Sur 0 -- -- 64
2018-04-01 12:00:00 20.3 9 Sur 15 Sudeste 0 -- -- 60
2018-04-01 11:00:00 20 5 Sudeste 12 Norte 0 -- -- 59
2018-04-01 10:00:00 17.9 4 Norte 14 Norte 0 -- -- 65
2018-04-01 09:00:00 14.7 5 Norte 9 Norte 0 -- -- 78
2018-04-01 08:00:00 14 4 Norte 9 Norte 0 -- -- 81
2018-04-01 07:00:00 13.8 4 Norte 8 Norte 0 -- -- 81
2018-04-01 06:00:00 13.6 5 Norte 9 Norte 0 -- -- 82
2018-04-01 05:00:00 14.3 4 Norte 8 Norte 0 -- -- 80
2018-04-01 04:00:00 16.2 3 Norte 10 Nordeste 0 -- -- 75
2018-04-01 03:00:00 15.7 3 Norte 7 Norte 0 -- -- 78
2018-04-01 02:00:00 14.8 3 Noroeste 8 Norte 0 -- -- 80
2018-04-01 01:00:00 14.5 4 Norte 7 Norte 0 -- -- 81
2018-04-01 00:00:00 14.8 4 Norte 7 Norte 0 -- -- 80
2018-03-31 23:00:00 15.5 3 Norte 6 Norte 0 -- -- 78
2018-03-31 22:00:00 16.6 2 Norte 9 Sudeste 0 -- -- 74
2018-03-31 21:00:00 17.6 6 Sur 15 Sudeste 0 -- -- 70
2018-03-31 20:00:00 17.9 8 Sudeste 22 Sur 0 -- -- 70
2018-03-31 19:00:00 18.2 8 Sudeste 22 Sudeste 0 -- -- 69
2018-03-31 18:00:00 20 8 Sudeste 23 Sudeste 0 -- -- 64
2018-03-31 17:00:00 20.7 8 Sudeste 20 Sudeste 0 -- -- 61
2018-03-31 16:00:00 20.9 8 Sur 22 Sur 0 -- -- 60
2018-03-31 15:00:00 20.7 10 Sur 30 Sudeste 0 -- -- 58
2018-03-31 14:00:00 20.4 11 Sur 25 Sudeste 0 -- -- 59
2018-03-31 13:00:00 19.7 10 Sudeste 26 Este 0 -- -- 57
2018-03-31 12:00:00 18.9 8 Sur 22 Sudeste 0 -- -- 60
2018-03-31 11:00:00 18.1 10 Sur 27 Sudeste 0 -- -- 61
2018-03-31 10:00:00 17.5 6 Sudoeste 19 Sudeste 0 -- -- 62
2018-03-31 09:00:00 16.8 11 Sur 26 Sur 0 -- -- 64
2018-03-31 08:00:00 16.4 10 Sur 19 Sur 0 -- -- 65
2018-03-31 07:00:00 16.2 2 Norte 21 Sudoeste 0 -- -- 66
2018-03-31 06:00:00 16.5 0 Calma 12 Norte 0 -- -- 65
2018-03-31 05:00:00 16.9 2 Nordeste 28 Sur 0 -- -- 63
2018-03-31 04:00:00 17.1 10 Sur 29 Sur 0 -- -- 64
2018-03-31 03:00:00 16.8 2 Sur 11 Noroeste 0 -- -- 64
2018-03-31 02:00:00 16.7 3 Nordeste 15 Noroeste 0 -- -- 63
2018-03-31 01:00:00 16.4 3 Norte 14 Norte 0 -- -- 64
2018-03-31 00:00:00 16.2 4 Norte 15 Norte 0 -- -- 64
2018-03-30 23:00:00 16.5 6 Norte 21 Norte 0 -- -- 64
2018-03-30 22:00:00 16.4 7 Norte 18 Norte 0 -- -- 63
2018-03-30 21:00:00 16.6 5 Norte 24 Noroeste 0 -- -- 62
2018-03-30 20:00:00 17.2 8 Norte 28 Noroeste 0 -- -- 60
2018-03-30 19:00:00 17.9 5 Noroeste 23 Norte 0 -- -- 59
2018-03-30 18:00:00 18.8 9 Norte 26 Norte 0 -- -- 57
2018-03-30 17:00:00 19 4 Norte 23 Norte 0 -- -- 60
2018-03-30 16:00:00 18.8 7 Norte 23 Norte 0 -- -- 60
2018-03-30 15:00:00 18.6 9 Norte 26 Nordeste 0 -- -- 63
2018-03-30 14:00:00 18.6 6 Norte 22 Norte 0 -- -- 66
2018-03-30 13:00:00 18.5 8 Norte 28 Norte 0 -- -- 68
2018-03-30 12:00:00 18.8 12 Norte 29 Noroeste 0 -- -- 63
2018-03-30 11:00:00 18.3 5 Norte 16 Norte 0 -- -- 67
2018-03-30 10:00:00 18 4 Nordeste 18 Norte 0 -- -- 72
2018-03-30 09:00:00 17.7 3 Norte 20 Norte 0 -- -- 76
2018-03-30 08:00:00 17.8 6 Norte 21 Norte 0 -- -- 72
2018-03-30 07:00:00 17.8 8 Norte 26 Norte 0 -- -- 65
2018-03-30 06:00:00 17.7 6 Norte 21 Norte 0 -- -- 70
2018-03-30 05:00:00 17.7 9 Norte 18 Norte 0 -- -- 71
2018-03-30 04:00:00 17.6 6 Norte 16 Este 0 -- -- 70
2018-03-30 03:00:00 17.6 6 Norte 22 Norte 0 -- -- 70
2018-03-30 02:00:00 17.7 8 Norte 19 Norte 0 -- -- 71
2018-03-30 01:00:00 17.8 6 Norte 27 Norte 0 -- -- 72
2018-03-30 00:00:00 18 12 Norte 35 Norte 0 -- -- 72
2018-03-29 23:00:00 18.1 17 Norte 37 Norte 0 -- -- 70
2018-03-29 22:00:00 18.4 16 Norte 30 Norte 0 -- -- 71
2018-03-29 21:00:00 19 10 Norte 27 Norte 0 -- -- 66
2018-03-29 20:00:00 20 9 Norte 26 Norte 0 -- -- 63
2018-03-29 19:00:00 21.1 9 Norte 26 Norte 0 -- -- 60
2018-03-29 18:00:00 22.2 13 Norte 30 Norte 0 -- -- 57
2018-03-29 17:00:00 23.6 12 Norte 27 Norte 0 -- -- 54
2018-03-29 16:00:00 24.9 9 Nordeste 26 Sudeste 0 -- -- 49
2018-03-29 15:00:00 23.7 10 Sur 24 Sudeste 0 -- -- 57
2018-03-29 14:00:00 23.8 12 Sur 25 Sudeste 0 -- -- 54
2018-03-29 13:00:00 25.7 10 Sur 24 Sur 0 -- -- 38
2018-03-29 12:00:00 25.9 9 Sur 18 Sudoeste 0 -- -- 33
2018-03-29 11:00:00 25.3 4 Sudeste 11 Sudeste 0 -- -- 31
2018-03-29 10:00:00 21.4 3 Norte 10 Noroeste 0 -- -- 38
2018-03-29 09:00:00 17.1 5 Norte 11 Norte 0 -- -- 48
2018-03-29 08:00:00 16.3 4 Norte 12 Norte 0 -- -- 45
2018-03-29 07:00:00 16.9 3 Norte 9 Norte 0 -- -- 40
2018-03-29 06:00:00 17.1 5 Norte 9 Norte 0 -- -- 39
2018-03-29 05:00:00 18.2 4 Norte 9 Norte 0 -- -- 34
2018-03-29 04:00:00 18.5 5 Norte 10 Norte 0 -- -- 34
2018-03-29 03:00:00 19 4 Norte 9 Norte 0 -- -- 33
2018-03-29 02:00:00 19.4 4 Norte 10 Norte 0 -- -- 32
2018-03-29 01:00:00 18.4 5 Norte 10 Norte 0 -- -- 39
2018-03-29 00:00:00 18.9 2 Norte 8 Norte 0 -- -- 40
2018-03-28 23:00:00 20 0 Calma 8 Norte 0 -- -- 42
2018-03-28 22:00:00 21.2 0 Calma 8 Norte 0 -- -- 42
2018-03-28 21:00:00 21.6 4 Norte 7 Norte 0 -- -- 55
2018-03-28 20:00:00 22.1 3 Norte 9 Sur 0 -- -- 51
2018-03-28 19:00:00 22.8 3 Sur 10 Sur 0 -- -- 52
2018-03-28 18:00:00 23.2 6 Sur 13 Sudeste 0 -- -- 49
2018-03-28 17:00:00 23.5 5 Sudoeste 10 Sur 0 -- -- 52
2018-03-28 16:00:00 22.3 6 Sudoeste 10 Sur 0 -- -- 60
2018-03-28 15:00:00 22.9 5 Sur 11 Sur 0 -- -- 59
2018-03-28 14:00:00 23.7 5 Sudeste 10 Sudeste 0 -- -- 51
2018-03-28 13:00:00 22.4 5 Sur 10 Sur 0 -- -- 63
2018-03-28 12:00:00 22.7 5 Sur 12 Sudeste 0 -- -- 62
2018-03-28 11:00:00 21.4 2 Sur 5 Sur 0 -- -- 60
2018-03-28 10:00:00 19.5 2 Norte 6 Norte 0 -- -- 62
2018-03-28 09:00:00 18.2 2 Norte 9 Norte 0 -- -- 62
2018-03-28 08:00:00 17.5 5 Norte 8 Norte 0 -- -- 64
2018-03-28 07:00:00 18.2 4 Norte 8 Norte 0 -- -- 61
2018-03-28 06:00:00 18.4 5 Norte 11 Norte 0 -- -- 59
2018-03-28 05:00:00 19.3 3 Norte 9 Norte 0 -- -- 57
2018-03-28 04:00:00 21.5 5 Sudeste 18 Sur 0 -- -- 49
2018-03-28 03:00:00 18.9 3 Norte 6 Norte 0 -- -- 57
2018-03-28 02:00:00 18.9 3 Norte 9 Norte 0 -- -- 59
2018-03-28 01:00:00 18.6 3 Norte 9 Norte 0 -- -- 65
2018-03-28 00:00:00 18.5 2 Noroeste 8 Noroeste 0 -- -- 71
2018-03-27 23:00:00 19 4 Noroeste 8 Oeste 0 -- -- 71
2018-03-27 22:00:00 18.9 0 Calma 12 Nordeste 0 -- -- 69
2018-03-27 21:00:00 18.9 4 Nordeste 20 Norte 0 -- -- 70
2018-03-27 20:00:00 19 5 Nordeste 22 Nordeste 0 -- -- 70
2018-03-27 19:00:00 19.2 11 Norte 28 Norte 0 -- -- 69
2018-03-27 18:00:00 20.4 10 Norte 28 Nordeste 0 -- -- 64
2018-03-27 17:00:00 20.6 11 Norte 26 Norte 0 -- -- 64
2018-03-27 16:00:00 20.6 12 Norte 26 Norte 0 -- -- 64
2018-03-27 15:00:00 20.4 7 Norte 21 Norte 0 -- -- 64
2018-03-27 14:00:00 19.3 9 Norte 21 Norte 0 -- -- 66
2018-03-27 13:00:00 19.2 5 Nordeste 22 Noroeste 0 -- -- 65
2018-03-27 12:00:00 18.8 6 Norte 25 Noroeste 0 -- -- 65
2018-03-27 11:00:00 19.2 6 Norte 24 Noroeste 0 -- -- 64
2018-03-27 10:00:00 17.6 8 Norte 27 Norte 0 -- -- 68
2018-03-27 09:00:00 16.8 6 Norte 22 Nordeste 0 -- -- 70
2018-03-27 08:00:00 16.4 5 Norte 21 Nordeste 0 -- -- 71
2018-03-27 07:00:00 16.4 9 Norte 22 Noroeste 0 -- -- 69
2018-03-27 06:00:00 16.3 6 Norte 30 Norte 0 -- -- 71
2018-03-27 05:00:00 16.5 6 Norte 26 Nordeste 0 -- -- 70
2018-03-27 04:00:00 16.5 5 Norte 23 Nordeste 0 -- -- 70
2018-03-27 03:00:00 16.6 10 Norte 24 Norte 0 -- -- 70
2018-03-27 02:00:00 16.5 8 Norte 32 Norte 0 -- -- 70
2018-03-27 01:00:00 16.7 9 Norte 27 Nordeste 0 -- -- 69
2018-03-27 00:00:00 16.9 10 Norte 28 Noroeste 0 -- -- 69
2018-03-26 23:00:00 16.9 7 Norte 28 Norte 0 -- -- 68
2018-03-26 22:00:00 17.3 11 Norte 25 Norte 0 -- -- 70
2018-03-26 21:00:00 17 9 Norte 29 Nordeste 0 -- -- 67
2018-03-26 20:00:00 17.6 10 Norte 23 Norte 0 -- -- 66
2018-03-26 19:00:00 18.3 9 Norte 36 Noroeste 0 -- -- 63
2018-03-26 18:00:00 18.3 13 Norte 34 Norte 0 -- -- 64
2018-03-26 17:00:00 19.1 12 Norte 36 Noroeste 0 -- -- 61
2018-03-26 16:00:00 20.2 12 Norte 29 Noroeste 0 -- -- 59
2018-03-26 15:00:00 19.2 8 Norte 33 Norte 0 -- -- 64
2018-03-26 14:00:00 19.4 10 Norte 36 Norte 0 -- -- 58
2018-03-26 13:00:00 18.5 9 Norte 29 Norte 0 -- -- 65
2018-03-26 12:00:00 18.7 9 Nordeste 28 Noroeste 0 -- -- 62
2018-03-26 11:00:00 17.8 10 Norte 26 Norte 0 -- -- 66
2018-03-26 10:00:00 17.7 6 Norte 30 Norte 0 -- -- 64
2018-03-26 09:00:00 16.9 12 Norte 36 Norte 0.2 -- -- 66
2018-03-26 08:00:00 17.2 19 Norte 42 Nordeste 0 -- -- 70
2018-03-26 07:00:00 17.3 6 Norte 30 Nordeste 0 -- -- 69
2018-03-26 06:00:00 17.2 9 Norte 33 Nordeste 0 -- -- 70
2018-03-26 05:00:00 17.3 12 Norte 35 Nordeste 0.6 -- -- 78
2018-03-26 04:00:00 17.7 12 Norte 32 Noroeste 0.6 -- -- 80
2018-03-26 03:00:00 17.4 12 Norte 36 Nordeste 0.4 -- -- 83
2018-03-26 02:00:00 18.5 11 Norte 38 Nordeste 0 -- -- 72
2018-03-26 01:00:00 18.3 10 Nordeste 41 Nordeste 0 -- -- 75
2018-03-26 00:00:00 18.6 11 Norte 38 Norte 0 -- -- 71
2018-03-25 23:00:00 18.4 14 Norte 46 Este 0 -- -- 71
2018-03-25 22:00:00 18.2 15 Norte 33 Nordeste 0 -- -- 70
2018-03-25 21:00:00 18.2 14 Norte 37 Norte 0 -- -- 70
2018-03-25 20:00:00 18.2 14 Norte 33 Norte 0 -- -- 69
2018-03-25 19:00:00 18.8 8 Norte 34 Norte 0 -- -- 67
2018-03-25 18:00:00 19.5 13 Norte 31 Norte 0 -- -- 63
2018-03-25 17:00:00 20.3 9 Norte 32 Noroeste 0 -- -- 60
2018-03-25 16:00:00 20.1 12 Norte 39 Noroeste 0 -- -- 61
2018-03-25 15:00:00 18.9 10 Norte 30 Nordeste 0 -- -- 66
2018-03-25 14:00:00 18 11 Norte 30 Nordeste 0 -- -- 72
2018-03-25 13:00:00 18.1 15 Norte 36 Norte 0 -- -- 70
2018-03-25 12:00:00 18.8 12 Norte 33 Norte 0 -- -- 64
2018-03-25 11:00:00 18.7 12 Norte 35 Nordeste 0 -- -- 62
2018-03-25 10:00:00 17.5 14 Norte 35 Norte 0 -- -- 65
2018-03-25 09:00:00 16.9 14 Norte 34 Norte 0 -- -- 66
2018-03-25 08:00:00 16.6 12 Norte 40 Norte 0 -- -- 67
2018-03-25 07:00:00 16.6 15 Norte 35 Nordeste 0 -- -- 68
2018-03-25 06:00:00 16.8 8 Norte 23 Norte 0 -- -- 68
2018-03-25 05:00:00 16.7 4 Norte 21 Norte 0 -- -- 67
2018-03-25 04:00:00 17 9 Norte 30 Norte 0 -- -- 65
2018-03-25 00:00:00 17.9 9 Norte 34 Norte 0 -- -- 71
2018-03-24 23:00:00 18.2 12 Norte 39 Norte 0 -- -- 73
2018-03-24 22:00:00 18.5 15 Norte 37 Norte 0 -- -- 73
2018-03-24 21:00:00 18.8 7 Norte 28 Nordeste 0 -- -- 71
2018-03-24 20:00:00 18.8 9 Norte 36 Norte 0 -- -- 71
2018-03-24 19:00:00 18.9 9 Norte 28 Norte 0 -- -- 70
2018-03-24 18:00:00 19.4 8 Norte 32 Norte 0 -- -- 65
2018-03-24 17:00:00 19.8 9 Norte 33 Norte 0 -- -- 66
2018-03-24 16:00:00 19.8 14 Norte 34 Norte 0 -- -- 71
2018-03-24 15:00:00 22 8 Norte 26 Noroeste 0 -- -- 58
2018-03-24 14:00:00 22.5 10 Norte 31 Norte 0 -- -- 55
2018-03-24 13:00:00 22.2 10 Norte 28 Norte 0 -- -- 56
2018-03-24 12:00:00 21.9 12 Norte 32 Noroeste 0 -- -- 53
2018-03-24 11:00:00 20.1 8 Nordeste 21 Noroeste 0 -- -- 62
2018-03-24 10:00:00 18.5 8 Norte 30 Norte 0 -- -- 68
2018-03-24 09:00:00 18 7 Norte 24 Norte 0 -- -- 70
2018-03-24 08:00:00 17.7 10 Norte 26 Norte 0 -- -- 67
2018-03-24 07:00:00 17.7 4 Norte 22 Norte 0 -- -- 67
2018-03-24 06:00:00 17.5 8 Norte 30 Nordeste 0 -- -- 69
2018-03-24 05:00:00 17.4 9 Norte 28 Norte 0 -- -- 72
2018-03-24 04:00:00 17.3 9 Norte 26 Norte 0 -- -- 68
2018-03-24 03:00:00 17.4 11 Norte 25 Norte 0 -- -- 70
2018-03-24 02:00:00 17.3 8 Norte 24 Nordeste 0 -- -- 70
2018-03-24 01:00:00 17.5 8 Norte 22 Nordeste 0 -- -- 65
2018-03-24 00:00:00 17.3 5 Norte 20 Nordeste 0 -- -- 65
2018-03-23 23:00:00 17.5 3 Norte 18 Noroeste 0 -- -- 66
2018-03-23 22:00:00 17.4 9 Norte 24 Norte 0 -- -- 69
2018-03-23 21:00:00 17.7 9 Norte 24 Norte 0 -- -- 72
2018-03-23 20:00:00 17.7 5 Norte 20 Noroeste 0 -- -- 71
2018-03-23 19:00:00 17.7 8 Norte 28 Norte 0 -- -- 67
2018-03-23 18:00:00 17.7 11 Norte 30 Nordeste 0 -- -- 63
2018-03-23 17:00:00 19.6 12 Norte 31 Nordeste 0 -- -- 59
2018-03-23 16:00:00 19.8 13 Norte 34 Norte 0 -- -- 55
2018-03-23 15:00:00 19.9 10 Norte 29 Norte 0 -- -- 55
2018-03-23 14:00:00 19.8 10 Norte 28 Norte 0 -- -- 55
2018-03-23 13:00:00 19.6 12 Norte 31 Norte 0 -- -- 56
2018-03-23 12:00:00 18.8 11 Nordeste 30 Norte 0 -- -- 59
2018-03-23 11:00:00 18.7 10 Norte 27 Norte 0 -- -- 58
2018-03-23 10:00:00 18.4 8 Norte 30 Noroeste 0 -- -- 60
2018-03-23 09:00:00 17.6 9 Norte 21 Norte 0 -- -- 62
2018-03-23 08:00:00 15.8 3 Norte 19 Nordeste 0 -- -- 65
2018-03-23 07:00:00 15.3 5 Norte 17 Nordeste 0 -- -- 69
2018-03-23 06:00:00 15.1 6 Norte 22 Nordeste 0 -- -- 69
2018-03-23 05:00:00 15.2 7 Norte 20 Noroeste 0 -- -- 68
2018-03-23 04:00:00 15.3 5 Norte 17 Norte 0 -- -- 70
2018-03-23 03:00:00 15.1 3 Norte 17 Noroeste 0 -- -- 69
2018-03-23 02:00:00 15.3 3 Norte 14 Noroeste 0 -- -- 68
2018-03-23 01:00:00 15.6 5 Nordeste 19 Norte 0 -- -- 67
2018-03-23 00:00:00 15.7 2 Norte 20 Nordeste 0 -- -- 66